Time;durP1;ratioP1;P1;durP2;ratioP2;P2;SDS_P1;SDS_P2;PMS_P1;PMS_P2;Temp;Humidity;BMP_temperature;BMP_pressure;BME280_temperature;BME280_humidity;BME280_pressure;Samples;Min_cycle;Max_cycle;Signal;HPM_P1;HPM_P2
2023/08/06 00:01:12;;;;;;;;;0.00;0.00;;;;;-145.10;100.00;63789.38;5037586;28;46263;-75
2023/08/06 00:03:37;;;;;;;;;0.25;0.25;;;;;-145.10;100.00;63789.38;5030520;28;52272;-75
2023/08/06 00:06:05;;;;;;;;;0.00;0.00;;;;;-145.10;100.00;63789.38;5034132;28;66496;-76
2023/08/06 00:08:30;;;;;;;;;0.00;0.00;;;;;-145.10;100.00;63789.38;5039601;28;45596;-76
2023/08/06 00:10:55;;;;;;;;;0.00;0.00;;;;;-145.10;100.00;63789.38;5022236;28;47932;-75
2023/08/06 00:13:21;;;;;;;;;2.50;0.00;;;;;-145.10;100.00;63789.38;5040316;28;58105;-75
2023/08/06 00:15:46;;;;;;;;;0.00;0.00;;;;;-145.10;100.00;63789.38;5038745;28;52638;-77
2023/08/06 00:18:11;;;;;;;;;1.25;0.00;;;;;-145.10;100.00;63789.38;5028900;28;45395;-75
2023/08/06 00:20:40;;;;;;;;;0.00;0.00;;;;;-145.10;100.00;63789.38;5042457;28;46055;-76
2023/08/06 00:23:05;;;;;;;;;0.00;0.00;;;;;-145.10;100.00;63789.38;5030736;28;45691;-76
2023/08/06 00:25:33;;;;;;;;;0.00;0.00;;;;;-145.10;100.00;63789.38;5038115;28;64532;-76
2023/08/06 00:27:58;;;;;;;;;1.25;0.00;;;;;-145.10;100.00;63789.38;5022655;28;73224;-76
2023/08/06 00:30:24;;;;;;;;;0.00;0.00;;;;;-145.10;100.00;63789.38;5043692;28;68633;-76
2023/08/06 00:32:49;;;;;;;;;0.00;0.00;;;;;-145.10;100.00;63789.38;5023391;28;68053;-76
2023/08/06 00:35:14;;;;;;;;;0.00;0.00;;;;;-145.10;100.00;63789.38;5031959;28;45355;-76
2023/08/06 00:37:40;;;;;;;;;0.00;0.00;;;;;-145.10;100.00;63789.38;5030287;28;45446;-75
2023/08/06 00:40:07;;;;;;;;;0.00;0.00;;;;;-145.10;100.00;63789.38;5032734;28;45292;-75
2023/08/06 00:42:32;;;;;;;;;0.00;0.00;;;;;-145.10;100.00;63789.38;5027608;28;45383;-75
2023/08/06 00:44:58;;;;;;;;;0.25;0.00;;;;;-145.10;100.00;63789.38;5038275;28;45361;-75
2023/08/06 00:47:23;;;;;;;;;0.25;0.00;;;;;-145.10;100.00;63789.38;5052593;28;45416;-74
2023/08/06 00:49:48;;;;;;;;;2.00;0.00;;;;;-145.10;100.00;63789.38;5021497;28;64409;-76
2023/08/06 00:52:14;;;;;;;;;0.00;0.00;;;;;-145.10;100.00;63789.38;5037145;28;69474;-76
2023/08/06 00:54:40;;;;;;;;;0.00;0.00;;;;;-145.10;100.00;63789.38;5040818;28;45415;-75
2023/08/06 00:57:07;;;;;;;;;0.00;0.00;;;;;-145.10;100.00;63789.38;5030317;28;45893;-76
2023/08/06 00:59:33;;;;;;;;;5.25;0.00;;;;;-145.10;100.00;63789.38;5029906;28;46090;-75
2023/08/06 01:01:58;;;;;;;;;0.00;0.00;;;;;-145.10;100.00;63789.38;5035689;28;62705;-74
2023/08/06 01:04:24;;;;;;;;;0.00;0.00;;;;;-145.10;100.00;63789.38;5033378;28;45415;-74
2023/08/06 01:07:01;;;;;;;;;0.50;0.00;;;;;-145.10;100.00;63789.38;5034965;28;73512;-74
2023/08/06 01:09:49;;;;;;;;;0.75;0.75;;;;;-145.10;100.00;63789.38;5037973;28;45280;-75
2023/08/06 01:12:29;;;;;;;;;1.75;0.50;;;;;-145.10;100.00;63789.38;5032433;28;45528;-75
2023/08/06 01:15:20;;;;;;;;;1.25;0.00;;;;;-145.10;100.00;63789.38;5036647;28;45447;-75
2023/08/06 01:17:46;;;;;;;;;0.25;0.00;;;;;-145.10;100.00;63789.38;5026531;28;45272;-75
2023/08/06 01:20:11;;;;;;;;;0.00;0.00;;;;;-145.10;100.00;63789.38;5032816;28;45982;-75
2023/08/06 01:22:37;;;;;;;;;1.75;1.00;;;;;-145.10;100.00;63789.38;5033614;28;69905;-75
2023/08/06 01:25:02;;;;;;;;;2.50;0.00;;;;;-145.10;100.00;63789.38;5026246;28;53482;-75
2023/08/06 01:27:39;;;;;;;;;0.50;0.00;;;;;-145.10;100.00;63789.38;5023119;28;45506;-74
2023/08/06 01:30:11;;;;;;;;;3.50;0.50;;;;;-145.10;100.00;63789.38;5017692;28;47356;-74
2023/08/06 01:32:39;;;;;;;;;2.75;0.50;;;;;-145.10;100.00;63789.38;5034945;28;45512;-74
2023/08/06 01:35:05;;;;;;;;;1.00;1.00;;;;;-145.10;100.00;63789.38;5032185;28;45384;-75
2023/08/06 01:37:31;;;;;;;;;0.50;0.25;;;;;-145.10;100.00;63789.38;5037163;28;45982;-74
2023/08/06 01:39:57;;;;;;;;;2.25;0.50;;;;;-145.10;100.00;63789.38;5039939;28;47287;-76
2023/08/06 01:42:22;;;;;;;;;1.25;1.00;;;;;-145.10;100.00;63789.38;5038963;28;65402;-76
2023/08/06 01:44:48;;;;;;;;;2.25;1.75;;;;;-145.10;100.00;63789.38;5040393;28;63107;-76
2023/08/06 01:47:13;;;;;;;;;1.75;1.50;;;;;-145.10;100.00;63789.38;5027414;28;63970;-75
2023/08/06 01:49:38;;;;;;;;;3.75;1.00;;;;;-145.10;100.00;63789.38;5023927;28;69604;-75
2023/08/06 01:52:04;;;;;;;;;3.75;2.50;;;;;-145.10;100.00;63789.38;5050583;28;69582;-75
2023/08/06 01:54:29;;;;;;;;;2.50;2.00;;;;;-145.10;100.00;63789.38;5031332;28;45470;-76
2023/08/06 01:56:55;;;;;;;;;1.50;0.50;;;;;-145.10;100.00;63789.38;5034259;28;45316;-75
2023/08/06 01:59:20;;;;;;;;;2.25;1.00;;;;;-145.10;100.00;63789.38;5026865;28;45500;-75
2023/08/06 02:01:46;;;;;;;;;6.25;3.00;;;;;-145.10;100.00;63789.38;5031547;28;51848;-75
2023/08/06 02:04:11;;;;;;;;;4.25;1.00;;;;;-145.10;100.00;63789.38;5034946;28;53525;-75
2023/08/06 02:06:36;;;;;;;;;2.75;1.50;;;;;-145.10;100.00;63789.38;5022679;28;68738;-75
2023/08/06 02:09:02;;;;;;;;;3.25;1.00;;;;;-145.10;100.00;63789.38;5031151;28;70881;-75
2023/08/06 02:11:27;;;;;;;;;2.75;2.00;;;;;-145.10;100.00;63789.38;5031352;28;50358;-75
2023/08/06 02:13:52;;;;;;;;;1.00;1.00;;;;;-145.10;100.00;63789.38;5033424;28;54679;-75
2023/08/06 02:16:18;;;;;;;;;2.50;2.00;;;;;-145.10;100.00;63789.38;5033950;28;45303;-75
2023/08/06 02:18:43;;;;;;;;;2.25;1.25;;;;;-145.10;100.00;63789.38;5024237;28;45513;-75
2023/08/06 02:21:08;;;;;;;;;7.50;3.00;;;;;-145.10;100.00;63789.38;5036993;28;66518;-75
2023/08/06 02:23:34;;;;;;;;;4.25;1.50;;;;;-145.10;100.00;63789.38;5023386;28;68599;-75
2023/08/06 02:26:03;;;;;;;;;7.25;1.75;;;;;-145.10;100.00;63789.38;5037476;28;74704;-75
2023/08/06 02:28:30;;;;;;;;;2.75;0.75;;;;;-145.10;100.00;63789.38;5036888;28;45498;-75
2023/08/06 02:30:56;;;;;;;;;2.25;0.75;;;;;-145.10;100.00;63789.38;5043593;28;45263;-75
2023/08/06 02:33:21;;;;;;;;;2.00;0.75;;;;;-145.10;100.00;63789.38;5037488;28;45422;-74
2023/08/06 02:35:47;;;;;;;;;3.00;1.50;;;;;-145.10;100.00;63789.38;5043408;28;45612;-74
2023/08/06 02:38:12;;;;;;;;;2.00;1.75;;;;;-145.10;100.00;63789.38;5034121;28;46449;-76
2023/08/06 02:40:44;;;;;;;;;4.25;1.00;;;;;-145.10;100.00;63789.38;5033806;28;45299;-76
2023/08/06 02:43:09;;;;;;;;;4.00;2.50;;;;;-145.10;100.00;63789.38;5023227;28;45257;-75
2023/08/06 02:45:35;;;;;;;;;2.25;1.75;;;;;-145.10;100.00;63789.38;5029738;28;61818;-75
2023/08/06 02:48:02;;;;;;;;;4.50;2.50;;;;;-145.10;100.00;63789.38;5036286;28;61342;-75
2023/08/06 02:50:27;;;;;;;;;3.50;2.25;;;;;-145.10;100.00;63789.38;5024394;28;45293;-76
2023/08/06 02:52:52;;;;;;;;;5.50;1.50;;;;;-145.10;100.00;63789.38;5033246;28;68285;-75
2023/08/06 02:55:18;;;;;;;;;4.25;2.25;;;;;-145.10;100.00;63789.38;5033970;28;67546;-75
2023/08/06 02:57:43;;;;;;;;;3.00;2.25;;;;;-145.10;100.00;63789.38;5021036;28;67990;-76
2023/08/06 03:00:08;;;;;;;;;2.50;1.75;;;;;-145.10;100.00;63789.38;5033097;28;62070;-75
2023/08/06 03:02:34;;;;;;;;;3.50;2.00;;;;;-145.10;100.00;63789.38;5031407;28;45399;-76
2023/08/06 03:04:59;;;;;;;;;3.00;3.00;;;;;-145.10;100.00;63789.38;5035044;28;65414;-75
2023/08/06 03:07:24;;;;;;;;;3.25;3.00;;;;;-145.10;100.00;63789.38;5032927;28;70524;-75
2023/08/06 03:09:50;;;;;;;;;2.75;2.00;;;;;-145.10;100.00;63789.38;5031168;28;67521;-75
2023/08/06 03:12:15;;;;;;;;;5.50;2.50;;;;;-145.10;100.00;63789.38;5030674;28;45487;-75
2023/08/06 03:14:41;;;;;;;;;2.00;2.00;;;;;-145.10;100.00;63789.38;5033774;28;48045;-74
2023/08/06 03:17:06;;;;;;;;;3.25;2.25;;;;;-145.10;100.00;63789.38;5018609;28;47104;-75
2023/08/06 03:19:31;;;;;;;;;2.00;2.00;;;;;-145.10;100.00;63789.38;5025393;28;45313;-75
2023/08/06 03:21:57;;;;;;;;;2.00;1.75;;;;;-145.10;100.00;63789.38;5021096;28;61847;-75
2023/08/06 03:24:22;;;;;;;;;4.00;1.50;;;;;-145.10;100.00;63789.38;5033542;28;69148;-75
2023/08/06 03:26:47;;;;;;;;;3.75;1.00;;;;;-145.10;100.00;63789.38;5025149;28;71908;-75
2023/08/06 03:29:13;;;;;;;;;4.25;2.00;;;;;-145.10;100.00;63789.38;5029212;28;45166;-75
2023/08/06 03:31:38;;;;;;;;;2.75;2.75;;;;;-145.10;100.00;63789.38;5021199;28;69008;-75
2023/08/06 03:34:03;;;;;;;;;4.00;2.75;;;;;-145.10;100.00;63789.38;5034928;28;52032;-75
2023/08/06 03:36:29;;;;;;;;;2.00;2.00;;;;;-145.10;100.00;63789.38;5024310;28;70963;-75
2023/08/06 03:38:54;;;;;;;;;3.00;2.75;;;;;-145.10;100.00;63789.38;5024488;28;59662;-76
2023/08/06 03:41:19;;;;;;;;;2.75;2.75;;;;;-145.10;100.00;63789.38;5027931;28;45647;-75
2023/08/06 03:43:45;;;;;;;;;2.50;1.50;;;;;-145.10;100.00;63789.38;5020830;28;62643;-75
2023/08/06 03:46:10;;;;;;;;;4.50;2.50;;;;;-145.10;100.00;63789.38;5022408;28;66143;-75
2023/08/06 03:48:35;;;;;;;;;2.75;2.00;;;;;-145.10;100.00;63789.38;5032496;28;45190;-75
2023/08/06 03:51:01;;;;;;;;;1.75;1.75;;;;;-145.10;100.00;63789.38;5027893;28;64345;-75
2023/08/06 03:53:27;;;;;;;;;2.50;2.50;;;;;-145.10;100.00;63789.38;5050012;28;45783;-75
2023/08/06 03:55:52;;;;;;;;;4.75;3.00;;;;;-145.10;100.00;63789.38;5027631;28;45335;-75
2023/08/06 03:58:18;;;;;;;;;2.50;2.50;;;;;-145.10;100.00;63789.38;5039093;28;45469;-75
2023/08/06 04:00:43;;;;;;;;;6.75;3.00;;;;;-145.10;100.00;63789.38;5037842;28;60056;-75
2023/08/06 04:03:09;;;;;;;;;2.25;1.75;;;;;-145.10;100.00;63789.38;5047843;28;72520;-75
2023/08/06 04:05:34;;;;;;;;;3.75;2.75;;;;;-145.10;100.00;63789.38;5031187;28;62308;-76
2023/08/06 04:07:59;;;;;;;;;3.75;3.50;;;;;-145.10;100.00;63789.38;5027651;28;58856;-76
2023/08/06 04:10:25;;;;;;;;;5.00;3.25;;;;;-145.10;100.00;63789.38;5028487;28;45667;-75
2023/08/06 04:12:50;;;;;;;;;5.00;3.50;;;;;-145.10;100.00;63789.38;5025858;28;73346;-75
2023/08/06 04:15:16;;;;;;;;;3.50;3.50;;;;;-145.10;100.00;63789.38;5035484;28;74299;-74
2023/08/06 04:17:41;;;;;;;;;2.25;2.25;;;;;-145.10;100.00;63789.38;5017694;28;45425;-74
2023/08/06 04:20:07;;;;;;;;;3.00;3.00;;;;;-145.10;100.00;63789.38;5030703;28;49063;-75
2023/08/06 04:22:32;;;;;;;;;2.50;2.50;;;;;-145.10;100.00;63789.38;5028647;28;45279;-74
2023/08/06 04:24:57;;;;;;;;;3.00;2.50;;;;;-145.10;100.00;63789.38;5030202;28;71505;-74
2023/08/06 04:27:23;;;;;;;;;4.25;2.50;;;;;-145.10;100.00;63789.38;5027967;28;71275;-75
2023/08/06 04:29:48;;;;;;;;;3.50;3.25;;;;;-145.10;100.00;63789.38;5031000;28;45773;-74
2023/08/06 04:32:13;;;;;;;;;6.00;3.00;;;;;-145.10;100.00;63789.38;5027761;28;61319;-74
2023/08/06 04:34:39;;;;;;;;;3.75;2.00;;;;;-145.10;100.00;63789.38;5032594;28;56474;-75
2023/08/06 04:37:04;;;;;;;;;4.00;4.00;;;;;-145.10;100.00;63789.38;5031162;28;66173;-75
2023/08/06 04:39:30;;;;;;;;;4.25;2.50;;;;;-145.10;100.00;63789.38;5034881;28;46460;-75
2023/08/06 04:41:57;;;;;;;;;3.00;3.00;;;;;-145.10;100.00;63789.38;5029691;28;55056;-74
2023/08/06 04:44:23;;;;;;;;;2.00;2.00;;;;;-145.10;100.00;63789.38;5019666;28;47260;-74
2023/08/06 04:46:48;;;;;;;;;3.75;2.50;;;;;-145.10;100.00;63789.38;5030422;28;45565;-75
2023/08/06 04:49:13;;;;;;;;;2.75;2.75;;;;;-145.10;100.00;63789.38;5053058;28;45439;-74
2023/08/06 04:51:39;;;;;;;;;3.50;3.50;;;;;-145.10;100.00;63789.38;5040615;28;57313;-75
2023/08/06 04:54:04;;;;;;;;;3.50;1.50;;;;;-145.10;100.00;63789.38;5047216;28;45475;-75
2023/08/06 04:56:29;;;;;;;;;6.25;4.00;;;;;-145.10;100.00;63789.38;5026271;28;45554;-75
2023/08/06 04:58:55;;;;;;;;;2.75;1.75;;;;;-145.10;100.00;63789.38;5029797;28;52133;-74
2023/08/06 05:01:20;;;;;;;;;5.50;4.00;;;;;-145.10;100.00;63789.38;5036457;28;58326;-75
2023/08/06 05:03:47;;;;;;;;;4.00;3.75;;;;;-145.10;100.00;63789.38;5043517;28;45451;-74
2023/08/06 05:06:12;;;;;;;;;3.25;2.50;;;;;-145.10;100.00;63789.38;5026326;28;45716;-75
2023/08/06 05:08:38;;;;;;;;;3.25;3.25;;;;;-145.10;100.00;63789.38;5035391;28;50061;-75
2023/08/06 05:11:03;;;;;;;;;3.00;3.00;;;;;-145.10;100.00;63789.38;5031300;28;68938;-75
2023/08/06 05:13:28;;;;;;;;;3.00;3.00;;;;;-145.10;100.00;63789.38;5035052;28;71053;-75
2023/08/06 05:15:54;;;;;;;;;4.00;3.75;;;;;-145.10;100.00;63789.38;5038512;28;45317;-75
2023/08/06 05:18:19;;;;;;;;;3.00;3.00;;;;;-145.10;100.00;63789.38;5030318;28;49798;-75
2023/08/06 05:20:44;;;;;;;;;3.00;3.00;;;;;-145.10;100.00;63789.38;5029250;28;65396;-76
2023/08/06 05:23:10;;;;;;;;;5.25;2.75;;;;;-145.10;100.00;63789.38;5038350;28;45698;-75
2023/08/06 05:25:35;;;;;;;;;4.00;2.25;;;;;-145.10;100.00;63789.38;5024581;28;45250;-74
2023/08/06 05:28:01;;;;;;;;;3.00;2.50;;;;;-145.10;100.00;63789.38;5015649;28;45224;-75
2023/08/06 05:30:27;;;;;;;;;4.00;2.00;;;;;-145.10;100.00;63789.38;5027370;28;45396;-75
2023/08/06 05:32:52;;;;;;;;;0.50;0.50;;;;;-145.10;100.00;63789.38;5039346;28;46175;-76
2023/08/06 05:35:18;;;;;;;;;2.00;2.00;;;;;-145.10;100.00;63789.38;5027869;28;71773;-74
2023/08/06 05:37:43;;;;;;;;;1.50;1.50;;;;;-145.10;100.00;63789.38;5016720;28;67496;-74
2023/08/06 05:40:09;;;;;;;;;2.50;1.50;;;;;-145.10;100.00;63789.38;5038877;28;68950;-75
2023/08/06 05:42:34;;;;;;;;;4.25;2.50;;;;;-145.10;100.00;63789.38;5033441;28;45468;-75
2023/08/06 05:44:59;;;;;;;;;2.50;2.00;;;;;-145.10;100.00;63789.38;5035805;28;45477;-74
2023/08/06 05:47:25;;;;;;;;;1.75;1.75;;;;;-145.10;100.00;63789.38;5044103;28;66763;-74
2023/08/06 05:49:50;;;;;;;;;3.00;2.50;;;;;-145.10;100.00;63789.38;5022140;28;57220;-74
2023/08/06 05:52:15;;;;;;;;;6.00;2.75;;;;;-145.10;100.00;63789.38;5026367;28;61523;-75
2023/08/06 05:54:40;;;;;;;;;5.75;1.50;;;;;-145.10;100.00;63789.38;5035658;28;62738;-75
2023/08/06 05:57:06;;;;;;;;;4.00;3.00;;;;;-145.10;100.00;63789.38;5022019;28;67335;-76
2023/08/06 05:59:31;;;;;;;;;1.75;1.75;;;;;-145.10;100.00;63789.38;5038955;28;45589;-75
2023/08/06 06:01:57;;;;;;;;;4.25;2.25;;;;;-145.10;100.00;63789.38;5044426;28;73990;-75
2023/08/06 06:04:22;;;;;;;;;3.25;2.00;;;;;-145.10;100.00;63789.38;5055641;28;45268;-76
2023/08/06 06:06:47;;;;;;;;;3.50;2.75;;;;;-145.10;100.00;63789.38;5037861;28;67939;-75
2023/08/06 06:09:13;;;;;;;;;1.50;1.50;;;;;-145.10;100.00;63789.38;5021635;28;68213;-75
2023/08/06 06:11:38;;;;;;;;;1.00;1.00;;;;;-145.10;100.00;63789.38;5021683;28;69013;-76
2023/08/06 06:14:04;;;;;;;;;3.50;3.00;;;;;-145.10;100.00;63789.38;5021644;28;45661;-75
2023/08/06 06:16:30;;;;;;;;;1.25;1.25;;;;;-145.10;100.00;63789.38;5037664;28;52924;-75
2023/08/06 06:18:57;;;;;;;;;3.75;2.25;;;;;-145.10;100.00;63789.38;5021107;28;58649;-76
2023/08/06 06:21:22;;;;;;;;;2.50;0.75;;;;;-145.10;100.00;63789.38;5036830;28;47152;-75
2023/08/06 06:23:48;;;;;;;;;3.25;1.75;;;;;-145.10;100.00;63789.38;5036650;28;45418;-75
2023/08/06 06:26:13;;;;;;;;;2.00;2.00;;;;;-145.10;100.00;63789.38;5032296;28;45609;-75
2023/08/06 06:28:38;;;;;;;;;1.75;1.75;;;;;-145.10;100.00;63789.38;5024517;28;59255;-75
2023/08/06 06:31:04;;;;;;;;;1.00;0.50;;;;;-145.10;100.00;63789.38;5020068;28;64839;-75
2023/08/06 06:33:29;;;;;;;;;1.75;1.75;;;;;-145.10;100.00;63789.38;5045001;28;45367;-75
2023/08/06 06:35:55;;;;;;;;;8.00;1.00;;;;;-145.10;100.00;63789.38;5025853;28;45316;-75
2023/08/06 06:38:20;;;;;;;;;2.00;1.25;;;;;-145.10;100.00;63789.38;5018364;28;72919;-75
2023/08/06 06:40:57;;;;;;;;;4.00;1.50;;;;;-145.10;100.00;63789.38;5042388;28;63788;-74
2023/08/06 06:43:23;;;;;;;;;3.50;2.25;;;;;-145.10;100.00;63789.38;5027986;28;45272;-75
2023/08/06 06:45:53;;;;;;;;;1.50;1.50;;;;;-145.10;100.00;63789.38;5037333;28;45395;-75
2023/08/06 06:48:19;;;;;;;;;3.25;1.50;;;;;-145.10;100.00;63789.38;5023946;28;45418;-76
2023/08/06 06:50:47;;;;;;;;;3.25;1.00;;;;;-145.10;100.00;63789.38;5047619;28;59512;-76
2023/08/06 06:53:12;;;;;;;;;1.75;1.25;;;;;-145.10;100.00;63789.38;5012525;28;45691;-75
2023/08/06 06:55:38;;;;;;;;;2.00;1.00;;;;;-145.10;100.00;63789.38;5039573;28;58457;-76
2023/08/06 06:58:03;;;;;;;;;2.75;1.25;;;;;-145.10;100.00;63789.38;5017775;28;63920;-76
2023/08/06 07:00:28;;;;;;;;;1.50;1.50;;;;;-145.10;100.00;63789.38;5047812;28;73737;-76
2023/08/06 07:02:54;;;;;;;;;0.75;0.75;;;;;-145.10;100.00;63789.38;5049597;28;56317;-75
2023/08/06 07:05:19;;;;;;;;;1.25;1.25;;;;;-145.10;100.00;63789.38;5027514;28;49525;-75
2023/08/06 07:07:44;;;;;;;;;3.00;1.75;;;;;-145.10;100.00;63789.38;5018255;28;58954;-76
2023/08/06 07:10:10;;;;;;;;;3.50;1.00;;;;;-145.10;100.00;63789.38;5010180;28;59291;-75
2023/08/06 07:12:36;;;;;;;;;1.00;0.50;;;;;-145.10;100.00;63789.38;5023511;28;67635;-75
2023/08/06 07:15:04;;;;;;;;;1.00;0.50;;;;;-145.10;100.00;63789.38;5038533;28;45367;-75
2023/08/06 07:17:30;;;;;;;;;1.75;1.75;;;;;-145.10;100.00;63789.38;5022597;28;45432;-75
2023/08/06 07:19:55;;;;;;;;;2.25;1.50;;;;;-145.10;100.00;63789.38;5025368;28;73803;-75
2023/08/06 07:22:20;;;;;;;;;4.50;2.50;;;;;-145.10;100.00;63789.38;5026723;28;70050;-76
2023/08/06 07:24:46;;;;;;;;;0.50;0.50;;;;;-145.10;100.00;63789.38;5037310;28;60957;-75
2023/08/06 07:27:11;;;;;;;;;2.00;2.00;;;;;-145.10;100.00;63789.38;5029466;28;71590;-74
2023/08/06 07:29:36;;;;;;;;;2.50;0.75;;;;;-145.10;100.00;63789.38;5024511;28;74227;-74
2023/08/06 07:32:01;;;;;;;;;3.25;1.75;;;;;-145.10;100.00;63789.38;5033460;28;45278;-75
2023/08/06 07:34:27;;;;;;;;;2.00;2.00;;;;;-145.10;100.00;63789.38;5032021;28;67072;-75
2023/08/06 07:36:52;;;;;;;;;1.50;1.50;;;;;-145.10;100.00;63789.38;5030353;28;45349;-76
2023/08/06 07:39:17;;;;;;;;;2.50;2.00;;;;;-145.10;100.00;63789.38;5030629;28;73489;-75
2023/08/06 07:41:43;;;;;;;;;3.25;1.00;;;;;-145.10;100.00;63789.38;5031651;28;61983;-75
2023/08/06 07:44:08;;;;;;;;;2.75;0.75;;;;;-145.10;100.00;63789.38;5046560;28;45541;-75
2023/08/06 07:46:33;;;;;;;;;2.00;2.00;;;;;-145.10;100.00;63789.38;5034516;28;51563;-75
2023/08/06 07:48:59;;;;;;;;;1.50;1.50;;;;;-145.10;100.00;63789.38;5019047;28;52457;-75
2023/08/06 07:51:24;;;;;;;;;2.00;1.75;;;;;-145.10;100.00;63789.38;5025858;28;68361;-75
2023/08/06 07:53:49;;;;;;;;;2.50;0.75;;;;;-145.10;100.00;63789.38;5036768;28;55124;-74
2023/08/06 07:56:15;;;;;;;;;3.00;2.00;;;;;-145.10;100.00;63789.38;5025700;28;63577;-75
2023/08/06 07:58:40;;;;;;;;;4.25;0.50;;;;;-145.10;100.00;63789.38;5038172;28;45392;-75
2023/08/06 08:01:06;;;;;;;;;1.50;1.50;;;;;-145.10;100.00;63789.38;5033795;28;66026;-75
2023/08/06 08:03:31;;;;;;;;;3.75;2.25;;;;;-145.10;100.00;63789.38;5037347;28;45459;-76
2023/08/06 08:05:57;;;;;;;;;2.50;1.00;;;;;-145.10;100.00;63789.38;5033176;28;45399;-74
2023/08/06 08:08:23;;;;;;;;;2.00;1.00;;;;;-145.10;100.00;63789.38;5028328;28;46103;-75
2023/08/06 08:10:48;;;;;;;;;3.00;1.00;;;;;-145.10;100.00;63789.38;5023193;28;45328;-75
2023/08/06 08:13:13;;;;;;;;;6.25;1.00;;;;;-145.10;100.00;63789.38;5040878;28;65327;-75
2023/08/06 08:15:39;;;;;;;;;2.00;0.75;;;;;-145.10;100.00;63789.38;5037019;28;50845;-76
2023/08/06 08:18:04;;;;;;;;;3.75;2.00;;;;;-145.10;100.00;63789.38;5034626;28;67709;-75
2023/08/06 08:20:31;;;;;;;;;2.00;1.25;;;;;-145.10;100.00;63789.38;5029132;28;70490;-74
2023/08/06 08:22:58;;;;;;;;;3.50;2.50;;;;;-145.10;100.00;63789.38;5034875;28;45419;-76
2023/08/06 08:25:24;;;;;;;;;2.25;1.00;;;;;-145.10;100.00;63789.38;5034070;28;45367;-74
2023/08/06 08:27:49;;;;;;;;;4.00;2.75;;;;;-145.10;100.00;63789.38;5036804;28;75521;-74
2023/08/06 08:30:14;;;;;;;;;2.25;1.75;;;;;-145.10;100.00;63789.38;5035661;28;45249;-75
2023/08/06 08:32:40;;;;;;;;;3.50;2.25;;;;;-145.10;100.00;63789.38;5030099;28;46292;-75
2023/08/06 08:35:05;;;;;;;;;4.75;1.75;;;;;-145.10;100.00;63789.38;5028927;28;61615;-75
2023/08/06 08:37:30;;;;;;;;;4.50;1.75;;;;;-145.10;100.00;63789.38;5038324;28;45276;-75
2023/08/06 08:39:56;;;;;;;;;1.00;1.00;;;;;-145.10;100.00;63789.38;5028612;28;65020;-75
2023/08/06 08:42:21;;;;;;;;;0.75;0.75;;;;;-145.10;100.00;63789.38;5020962;28;45657;-75
2023/08/06 08:44:47;;;;;;;;;2.50;1.00;;;;;-145.10;100.00;63789.38;5020607;28;73130;-75
2023/08/06 08:47:12;;;;;;;;;1.50;1.50;;;;;-145.10;100.00;63789.38;5034541;28;45335;-75
2023/08/06 08:49:38;;;;;;;;;1.25;0.75;;;;;-145.10;100.00;63789.38;5034904;28;62424;-75
2023/08/06 08:52:10;;;;;;;;;1.50;0.75;;;;;-145.10;100.00;63789.38;5024250;28;45385;-75
2023/08/06 08:54:37;;;;;;;;;1.75;1.75;;;;;-145.10;100.00;63789.38;5036493;28;45240;-76
2023/08/06 08:57:03;;;;;;;;;3.50;1.25;;;;;-145.10;100.00;63789.38;5039116;28;47445;-74
2023/08/06 08:59:29;;;;;;;;;3.00;1.00;;;;;-145.10;100.00;63789.38;5030024;28;45493;-75
2023/08/06 09:01:54;;;;;;;;;3.50;1.75;;;;;-145.10;100.00;63789.38;5034629;28;45427;-75
2023/08/06 09:04:20;;;;;;;;;3.50;2.00;;;;;-145.10;100.00;63789.38;5013486;28;56136;-75
2023/08/06 09:06:47;;;;;;;;;2.50;2.50;;;;;-145.10;100.00;63789.38;5040238;28;47037;-75
2023/08/06 09:09:17;;;;;;;;;3.00;2.00;;;;;-145.10;100.00;63789.38;5022628;28;45248;-75
2023/08/06 09:11:45;;;;;;;;;2.50;2.00;;;;;-145.10;100.00;63789.38;5040224;28;45470;-74
2023/08/06 09:14:11;;;;;;;;;1.75;1.25;;;;;-145.10;100.00;63789.38;5046977;28;45459;-74
2023/08/06 09:16:37;;;;;;;;;0.50;0.50;;;;;-145.10;100.00;63789.38;5021259;28;47436;-75
2023/08/06 09:19:10;;;;;;;;;5.50;2.25;;;;;-145.10;100.00;63789.38;5035793;28;45251;-76
2023/08/06 09:21:39;;;;;;;;;2.00;1.75;;;;;-145.10;100.00;63789.38;5038776;28;45727;-76
2023/08/06 09:24:12;;;;;;;;;2.00;2.00;;;;;-145.10;100.00;63789.38;5039897;28;45449;-76
2023/08/06 09:26:41;;;;;;;;;2.50;2.00;;;;;-145.10;100.00;63789.38;5015400;28;47287;-75
2023/08/06 09:29:07;;;;;;;;;1.75;1.75;;;;;-145.10;100.00;63789.38;5023294;28;45653;-75
2023/08/06 09:31:40;;;;;;;;;1.00;1.00;;;;;-145.10;100.00;63789.38;5034011;28;45494;-76
2023/08/06 09:34:10;;;;;;;;;2.25;1.00;;;;;-145.10;100.00;63789.38;5039520;28;45512;-76
2023/08/06 09:36:40;;;;;;;;;6.00;2.75;;;;;-145.10;100.00;63789.38;5034490;28;46809;-76
2023/08/06 09:39:13;;;;;;;;;2.50;2.00;;;;;-145.10;100.00;63789.38;5040045;28;45678;-76
2023/08/06 09:41:39;;;;;;;;;2.25;2.00;;;;;-145.10;100.00;63789.38;5032317;28;45226;-74
2023/08/06 09:44:05;;;;;;;;;2.25;2.00;;;;;-145.10;100.00;63789.38;5039193;28;45458;-75
2023/08/06 09:46:32;;;;;;;;;2.50;2.00;;;;;-145.10;100.00;63789.38;5033673;28;62575;-75
2023/08/06 09:48:57;;;;;;;;;4.50;1.00;;;;;-145.10;100.00;63789.38;5032140;28;45840;-75
2023/08/06 09:51:23;;;;;;;;;3.25;2.00;;;;;-145.10;100.00;63789.38;5021285;28;67696;-75
2023/08/06 09:53:48;;;;;;;;;2.00;1.00;;;;;-145.10;100.00;63789.38;5033531;28;67558;-74
2023/08/06 09:56:15;;;;;;;;;1.00;1.00;;;;;-145.10;100.00;63789.38;5021946;28;47899;-75
2023/08/06 09:58:42;;;;;;;;;4.00;2.25;;;;;-145.10;100.00;63789.38;5047078;28;45730;-76
2023/08/06 10:01:08;;;;;;;;;1.00;1.00;;;;;-145.10;100.00;63789.38;5032574;28;45524;-76
2023/08/06 10:03:34;;;;;;;;;2.75;1.50;;;;;-145.10;100.00;63789.38;5032324;28;45587;-76
2023/08/06 10:06:02;;;;;;;;;5.00;2.00;;;;;-145.10;100.00;63789.38;5029082;28;45323;-75
2023/08/06 10:08:27;;;;;;;;;2.00;2.00;;;;;-145.10;100.00;63789.38;5029146;28;45812;-76
2023/08/06 10:10:53;;;;;;;;;1.25;1.25;;;;;-145.10;100.00;63789.38;5044087;28;45913;-76
2023/08/06 10:13:22;;;;;;;;;2.50;2.50;;;;;-145.10;100.00;63789.38;5039494;28;45363;-76
2023/08/06 10:15:47;;;;;;;;;2.25;1.75;;;;;-145.10;100.00;63789.38;5022691;28;47209;-76
2023/08/06 10:18:17;;;;;;;;;2.00;2.00;;;;;-145.10;100.00;63789.38;5037653;28;52339;-75
2023/08/06 10:20:43;;;;;;;;;1.50;0.25;;;;;-145.10;100.00;63789.38;5034398;28;45349;-75
2023/08/06 10:23:08;;;;;;;;;3.00;2.25;;;;;-145.10;100.00;63789.38;5029035;28;70544;-75
2023/08/06 10:25:35;;;;;;;;;4.50;2.00;;;;;-145.10;100.00;63789.38;5034525;28;46916;-76
2023/08/06 10:28:01;;;;;;;;;2.00;1.00;;;;;-145.10;100.00;63789.38;5037582;28;45400;-76
2023/08/06 10:30:31;;;;;;;;;1.00;1.00;;;;;-145.10;100.00;63789.38;5036054;28;45466;-76
2023/08/06 10:33:03;;;;;;;;;0.50;0.50;;;;;-145.10;100.00;63789.38;5031765;28;45349;-76
2023/08/06 10:35:36;;;;;;;;;2.00;1.25;;;;;-145.10;100.00;63789.38;5037264;28;46147;-76
2023/08/06 10:38:09;;;;;;;;;2.00;2.00;;;;;-145.10;100.00;63789.38;5032886;28;45368;-75
2023/08/06 10:40:36;;;;;;;;;1.00;1.00;;;;;-145.10;100.00;63789.38;5015048;28;45328;-75
2023/08/06 10:43:02;;;;;;;;;2.00;2.00;;;;;-145.10;100.00;63789.38;5034179;28;45482;-75
2023/08/06 10:45:28;;;;;;;;;1.00;1.00;;;;;-145.10;100.00;63789.38;5025991;28;45446;-75
2023/08/06 10:47:58;;;;;;;;;4.75;1.75;;;;;-145.10;100.00;63789.38;5027615;28;45217;-74
2023/08/06 10:50:23;;;;;;;;;2.00;1.00;;;;;-145.10;100.00;63789.38;5026341;28;45404;-74
2023/08/06 10:52:49;;;;;;;;;2.25;2.00;;;;;-145.10;100.00;63789.38;5027952;28;45577;-75
2023/08/06 10:55:22;;;;;;;;;1.00;1.00;;;;;-145.10;100.00;63789.38;5039975;28;45281;-75
2023/08/06 10:57:47;;;;;;;;;2.50;2.00;;;;;-145.10;100.00;63789.38;5031448;28;45498;-75
2023/08/06 11:00:13;;;;;;;;;1.25;1.00;;;;;-145.10;100.00;63789.38;5038074;28;62356;-76
2023/08/06 11:02:39;;;;;;;;;1.75;1.00;;;;;-145.10;100.00;63789.38;5013817;28;45475;-75
2023/08/06 11:05:09;;;;;;;;;2.00;1.00;;;;;-145.10;100.00;63789.38;5037949;28;75677;-75